Atlantic Aquarius — VRDX6 — position and weather

sailwx.info

Track history (hours):
 
Tides and Currents Weather Stations Pressure Air Temp Water Temp Dewpoint Dewpoint Depression Visibility Wind Speed Wind Dir Waves Ship Positions

Atlantic Aquarius

Last reported at 2017-Apr-02 13:59 UTC. Time now 2017-Jun-29 10:46 UTC.
Position N 01°53' E 102°24'.
Warning: this ship's position is months out of date.

Length 183 m; draft 6.8 m.

Type: Tanker. MMSI: 477071400.

Date/timePositionNaut miles runAvg speedWind from/ knotsBaromVisibWave heightAir tempDewpointWater temp
2017-Apr-02 13:59N 01°53' E 102°24'1212.7
2017-Apr-02 13:04N 01°49' E 102°35'213.3
2017-Apr-02 12:55N 01°48' E 102°36'613.6
2017-Apr-02 12:30N 01°45' E 102°41'5712.9
2017-Apr-02 08:06N 01°13' E 103°28'111.9
2017-Apr-02 07:59N 01°13' E 103°30'611.8
2017-Apr-02 07:30N 01°12' E 103°35'4 8.8
2017-Apr-02 07:00N 01°12' E 103°40'3 5.6
2017-Apr-02 06:30N 01°14' E 103°42'2 4.9
2017-Apr-02 06:00N 01°14' E 103°44'0 0.0
2017-Apr-02 05:30N 01°14' E 103°44'0 0.0
2017-Apr-02 05:00N 01°14' E 103°44'  
2017-Mar-31 00:33N 01°14' E 103°44'2 1.6
2017-Mar-30 23:33N 01°14' E 103°42'3 3.4
2017-Mar-30 22:33N 01°14' E 103°39'0 0.1
2017-Mar-30 21:31N 01°14' E 103°39'0 0.0
2017-Mar-30 20:28N 01°14' E 103°39'0 0.0
2017-Mar-30 19:31N 01°14' E 103°39'0 0.1
2017-Mar-30 18:28N 01°14' E 103°39'0 0.0
2017-Mar-30 17:31N 01°14' E 103°39'0 0.1
2017-Mar-30 16:25N 01°14' E 103°39'0 0.0
2017-Mar-30 15:16N 01°14' E 103°39'0 0.0
2017-Mar-30 14:25N 01°14' E 103°39'0 0.1
2017-Mar-30 13:31N 01°14' E 103°39'0 0.1
2017-Mar-30 12:25N 01°14' E 103°39'0 0.0
2017-Mar-30 11:31N 01°14' E 103°39'1 1.3
2017-Mar-30 10:33N 01°12' E 103°39'5 5.0
2017-Mar-30 09:33N 01°09' E 103°43'1211.5
2017-Mar-30 08:33N 01°13' E 103°54'  
Track history (hours):
 
Tides and Currents Weather Stations Pressure Air Temp Water Temp Dewpoint Dewpoint Depression Visibility Wind Speed Wind Dir Waves Ship Positions

Atlantic Aquarius

Last reported at 2017-Apr-02 13:59 UTC. Time now 2017-Jun-29 10:46 UTC.
Position N 01°53' E 102°24'.
Warning: this ship's position is months out of date.

Length 183 m; draft 6.8 m.

Type: Tanker. MMSI: 477071400.

Date/timePositionNaut miles runAvg speedWind from/ knotsBaromVisibWave heightAir tempDewpointWater temp
2017-Apr-02 13:59N 01°53' E 102°24'1212.7
2017-Apr-02 13:04N 01°49' E 102°35'213.3
2017-Apr-02 12:55N 01°48' E 102°36'613.6
2017-Apr-02 12:30N 01°45' E 102°41'5712.9
2017-Apr-02 08:06N 01°13' E 103°28'111.9
2017-Apr-02 07:59N 01°13' E 103°30'611.8
2017-Apr-02 07:30N 01°12' E 103°35'4 8.8
2017-Apr-02 07:00N 01°12' E 103°40'3 5.6
2017-Apr-02 06:30N 01°14' E 103°42'2 4.9
2017-Apr-02 06:00N 01°14' E 103°44'0 0.0
2017-Apr-02 05:30N 01°14' E 103°44'0 0.0
2017-Apr-02 05:00N 01°14' E 103°44'  
2017-Mar-31 00:33N 01°14' E 103°44'2 1.6
2017-Mar-30 23:33N 01°14' E 103°42'3 3.4
2017-Mar-30 22:33N 01°14' E 103°39'0 0.1
2017-Mar-30 21:31N 01°14' E 103°39'0 0.0
2017-Mar-30 20:28N 01°14' E 103°39'0 0.0
2017-Mar-30 19:31N 01°14' E 103°39'0 0.1
2017-Mar-30 18:28N 01°14' E 103°39'0 0.0
2017-Mar-30 17:31N 01°14' E 103°39'0 0.1
2017-Mar-30 16:25N 01°14' E 103°39'0 0.0
2017-Mar-30 15:16N 01°14' E 103°39'0 0.0
2017-Mar-30 14:25N 01°14' E 103°39'0 0.1
2017-Mar-30 13:31N 01°14' E 103°39'0 0.1
2017-Mar-30 12:25N 01°14' E 103°39'0 0.0
2017-Mar-30 11:31N 01°14' E 103°39'1 1.3
2017-Mar-30 10:33N 01°12' E 103°39'5 5.0
2017-Mar-30 09:33N 01°09' E 103°43'1211.5
2017-Mar-30 08:33N 01°13' E 103°54'  

Dump ship's entire track history